Flight Track Log - Related Links

Times and Time Zones

All times are in EDT time to prevent confusion due to time zone crossing. See the EJA122 flight status page for this flight to view local times or setup timezone preferences in your user account.

Time Position Orientation Groundspeed Altitude Reporting Facility
EDT Latitude Longitude Course Direction KTS MPH feet Rate Location/Type
Wed 07:19:17 PM 37.6447 -97.4272 197° South 144 166 1,800  Level Kansas City Center
Wed 07:20:18 PM 37.6000 -97.4447 197° South 175 201 4,800 2,975 Climbing Kansas City Center
Wed 07:21:16 PM 37.5514 -97.4628 196° South 188 216 7,700 2,448 Climbing Kansas City Center
Wed 07:22:23 PM 37.4897 -97.4775 191° South 195 224 9,900 1,953 Climbing Kansas City Center
Wed 07:23:25 PM 37.4733 -97.5458 253° West 240 276 11,900 1,770 Climbing Kansas City Center
Wed 07:24:25 PM 37.4800 -97.6372 275° West 270 311 13,500 1,438 Climbing Kansas City Center
Wed 07:25:26 PM 37.4900 -97.7411 277° West 308 354 14,800 744 Climbing Kansas City Center
Wed 07:26:26 PM 37.5328 -97.8375 299° West 363 418 15,000 110 Climbing Kansas City Center
Wed 07:27:15 PM 37.6169 -97.8381 360° North 410 472 15,000  Level Kansas City Center
Wed 07:28:15 PM 37.7311 -97.8239 North 419 482 15,000 -1,043 Level Kansas City Center
Wed 07:29:10 PM 37.8131 -97.7375 40° Northeast 417 480 13,000 -2,609 Descending Kansas City Center
Wed 07:30:10 PM 37.8847 -97.6497 44° Northeast 336 387 10,000 -2,882 Descending Kansas City Center
Wed 07:31:17 PM 37.9025 -97.5303 79° East 302 348 6,900 -2,719 Descending Kansas City Center
Wed 07:32:18 PM 37.8850 -97.4350 103° East 266 306 4,200 -1,869 Descending Kansas City Center
Wed 07:33:19 PM 37.8297 -97.4064 158° South 203 234 3,100 -590 Descending Kansas City Center
Wed 07:34:20 PM 37.7886 -97.3942 167° South 116 133 3,000 -94 Descending Kansas City Center
Wed 07:35:27 PM 37.7542 -97.3864 170° South 101 116 2,900 -236 Descending Kansas City Center
Wed 07:36:27 PM 37.7231 -97.3911 187° South 119 137 2,500 -470 Descending Kansas City Center
Wed 07:37:22 PM 37.6950 -97.4036 199° South 116 133 2,000 -590 Descending Kansas City Center
Wed 07:38:29 PM 37.6586 -97.4197 199° South 119 137 1,300 -627 Descending Kansas City Center

Login

Don't have an account? Register now (free) for customized features, flight alerts, and more!